Flugplatz Paderborn Lippstadt

Bericht für EDLP

vom 17.09. um 13:20 UTC

Wind 10 kt aus 270°

Sichtweite 10 km oder mehr

Code: VCSH

aufgebrochene Bewölkung in 3500 ft

aufgebrochene Bewölkung in 4300 ft

Temperatur 15.0°C

Taupunkt 8.0°C

Luftfeuchtigkeit 63%

Luftdruck 1019 hPa

EDLP 171320Z 27010KT 210V310 9999 VCSH BKN035 BKN043 15/08 Q1019

Prognose für EDLP

vom 17.09. um 00:00 UTC

Zwischen 00:00 UTC und 00:00 UTC

Wind 10 kt aus 270°

Sichtweite 10 km oder mehr

aufgelockert bewölkt in 3000 ft


Zwischen 00:00 UTC und 00:00 UTC zeitweise

Wind 15 kt aus 280° in Böen 25 kt


Am 18.09. zwischen 00:00 UTC und 00:00 UTC zeitweise

variable Windrichtung mit 3 kt

TAF EDLP 171100Z 1712/1812 27010KT 9999 SCT030 TEMPO 1712/1718 28015G25KT TEMPO 1800/1807 VRB03KT
Impressum